Time;durP1;ratioP1;P1;durP2;ratioP2;P2;SDS_P1;SDS_P2;PMS_P1;PMS_P2;Temp;Humidity;BMP_temperature;BMP_pressure;BME280_temperature;BME280_humidity;BME280_pressure;Samples;Min_cycle;Max_cycle;Signal;HPM_P1;HPM_P2
2023/03/18 00:01:23;;;;;;;4.93;2.55;;;;;;;11.83;41.93;100467.31;5032610;28;20052;-81
2023/03/18 00:03:51;;;;;;;4.82;2.53;;;;;;;11.82;41.99;100471.06;5030183;28;20103;-80
2023/03/18 00:06:20;;;;;;;5.15;3.05;;;;;;;11.83;42.42;100481.03;5022321;28;20104;-80
2023/03/18 00:08:49;;;;;;;4.60;3.05;;;;;;;11.82;42.59;100482.91;5013584;28;20042;-78
2023/03/18 00:11:20;;;;;;;6.28;3.00;;;;;;;11.82;42.84;100477.41;5021666;28;20052;-79
2023/03/18 00:13:48;;;;;;;4.30;2.50;;;;;;;11.81;42.41;100480.31;5015403;28;20042;-78
2023/03/18 00:16:17;;;;;;;3.97;2.35;;;;;;;11.80;42.37;100495.88;5017067;28;20539;-78
2023/03/18 00:18:44;;;;;;;5.22;2.75;;;;;;;11.80;42.63;100495.88;5011809;28;20136;-79
2023/03/18 00:21:12;;;;;;;4.47;2.58;;;;;;;11.81;42.80;100499.50;5027762;28;20111;-80
2023/03/18 00:23:42;;;;;;;4.53;2.47;;;;;;;11.82;42.65;100501.22;5014335;28;20080;-80
2023/03/18 00:26:10;;;;;;;5.30;2.55;;;;;;;11.80;42.80;100495.06;5017114;28;20046;-81
2023/03/18 00:28:41;;;;;;;5.70;2.60;;;;;;;11.79;42.72;100493.34;5013466;28;20046;-79
2023/03/18 00:31:11;;;;;;;4.00;2.30;;;;;;;11.81;42.81;100489.41;5026551;28;20049;-78
2023/03/18 00:33:44;;;;;;;4.60;2.40;;;;;;;11.78;42.58;100489.72;5033468;28;20068;-80
2023/03/18 00:36:15;;;;;;;4.35;2.30;;;;;;;11.79;42.54;100480.50;5035082;28;20057;-79
2023/03/18 00:38:49;;;;;;;5.95;2.50;;;;;;;11.80;42.94;100484.09;5031859;28;20088;-78
2023/03/18 00:41:17;;;;;;;4.50;2.53;;;;;;;11.78;42.52;100484.25;5038487;28;20041;-80
2023/03/18 00:43:51;;;;;;;5.35;2.70;;;;;;;11.79;42.77;100483.22;5049246;28;20200;-79
2023/03/18 00:46:22;;;;;;;4.88;2.65;;;;;;;11.79;42.78;100483.22;5045464;28;20108;-80
2023/03/18 00:48:51;;;;;;;4.00;2.35;;;;;;;11.79;42.69;100482.38;5030013;28;20145;-81
2023/03/18 00:51:21;;;;;;;4.28;2.40;;;;;;;11.79;43.12;100483.22;5029208;28;20073;-81
2023/03/18 00:53:52;;;;;;;4.40;2.72;;;;;;;11.80;43.47;100487.66;5024962;28;20037;-80
2023/03/18 00:56:24;;;;;;;5.55;3.50;;;;;;;11.80;43.68;100471.22;5022936;28;20084;-79
2023/03/18 00:58:53;;;;;;;4.57;2.67;;;;;;;11.78;43.12;100462.31;5017804;28;20041;-79
2023/03/18 01:01:22;;;;;;;4.78;2.95;;;;;;;11.78;43.20;100462.31;5014678;28;20068;-79
2023/03/18 01:03:51;;;;;;;5.80;3.00;;;;;;;11.78;43.33;100481.50;5012909;28;20118;-79
2023/03/18 01:06:22;;;;;;;4.78;2.78;;;;;;;11.78;43.55;100497.94;5017380;28;20137;-81
2023/03/18 01:08:52;;;;;;;5.25;3.10;;;;;;;11.78;43.41;100497.09;5029714;28;20046;-81
2023/03/18 01:11:21;;;;;;;4.13;2.65;;;;;;;11.76;43.60;100488.13;5019063;28;20064;-81
2023/03/18 01:13:49;;;;;;;5.25;2.53;;;;;;;11.76;43.45;100494.47;5021111;28;20096;-81
2023/03/18 01:16:18;;;;;;;4.93;2.47;;;;;;;11.76;43.15;100493.63;5047966;28;20068;-81
2023/03/18 01:18:46;;;;;;;5.03;2.45;;;;;;;11.74;43.05;100497.38;5039444;28;20041;-80
2023/03/18 01:21:15;;;;;;;5.40;2.53;;;;;;;11.75;43.26;100481.78;5037325;28;20088;-78
2023/03/18 01:23:49;;;;;;;5.03;2.40;;;;;;;11.74;43.40;100471.84;5022145;28;20065;-80
2023/03/18 01:26:19;;;;;;;5.43;2.38;;;;;;;11.76;43.74;100478.03;5028107;28;20052;-79
2023/03/18 01:28:47;;;;;;;4.03;2.30;;;;;;;11.74;43.47;100478.19;5036486;28;20466;-79
2023/03/18 01:31:15;;;;;;;5.25;2.35;;;;;;;11.74;43.88;100485.53;5045052;28;20091;-80
2023/03/18 01:33:46;;;;;;;5.35;2.70;;;;;;;11.74;43.76;100493.75;5012846;28;20046;-80
2023/03/18 01:36:14;;;;;;;5.30;2.47;;;;;;;11.73;43.73;100498.38;5022315;28;20054;-80
2023/03/18 01:38:44;;;;;;;4.22;2.42;;;;;;;11.74;43.50;100499.25;5025994;28;20050;-78
2023/03/18 01:41:15;;;;;;;4.03;2.50;;;;;;;11.74;43.89;100497.38;5016215;28;20037;-80
2023/03/18 01:43:44;;;;;;;4.63;2.70;;;;;;;11.74;43.84;100480.91;5011231;28;20457;-79
2023/03/18 01:46:36;;;;;;;5.20;2.47;;;;;;;11.73;44.94;100483.81;5012632;28;20041;-78
2023/03/18 01:49:09;;;;;;;4.95;2.83;;;;;;;11.72;44.09;100488.44;5015656;28;20050;-78
2023/03/18 01:51:38;;;;;;;4.57;2.70;;;;;;;11.70;44.30;100474.03;5027960;28;20046;-79
2023/03/18 01:54:08;;;;;;;5.22;2.60;;;;;;;11.72;44.07;100474.72;5026998;28;20123;-78
2023/03/18 01:56:38;;;;;;;5.00;2.80;;;;;;;11.73;44.06;100473.72;5039160;28;20044;-78
2023/03/18 01:59:11;;;;;;;4.90;2.90;;;;;;;11.74;44.37;100480.06;5039003;28;20081;-79
2023/03/18 02:01:45;;;;;;;4.40;2.47;;;;;;;11.72;44.58;100476.59;5034680;28;20051;-79
2023/03/18 02:04:14;;;;;;;4.72;2.80;;;;;;;11.70;44.31;100471.28;5033196;28;20049;-78
2023/03/18 02:06:42;;;;;;;5.35;2.83;;;;;;;11.72;44.74;100468.38;5037517;28;20049;-78
2023/03/18 02:09:11;;;;;;;3.95;2.65;;;;;;;11.73;44.42;100472.84;5032041;28;20057;-80
2023/03/18 02:11:48;;;;;;;4.88;2.50;;;;;;;11.74;44.70;100463.59;5031192;28;21098;-78
2023/03/18 02:14:23;;;;;;;4.13;2.35;;;;;;;11.73;45.17;100450.91;5030348;28;20038;-79
2023/03/18 02:16:54;;;;;;;;;;;;;;;11.46;45.49;100449.00;5029774;28;20420;-78
2023/03/18 02:19:47;;;;;;;5.63;2.85;;;;;;;11.69;45.46;100444.03;5030966;28;20023;-78
2023/03/18 02:22:25;;;;;;;3.88;2.38;;;;;;;11.71;45.12;100452.97;5036945;28;20128;-79
2023/03/18 02:25:11;;;;;;;6.50;2.78;;;;;;;11.70;45.32;100471.28;5029647;28;20053;-79
2023/03/18 02:27:45;;;;;;;5.22;2.88;;;;;;;11.69;44.84;100474.19;5035785;28;20043;-79
2023/03/18 02:30:17;;;;;;;5.75;3.28;;;;;;;11.68;44.87;100476.06;5032649;28;20042;-79
2023/03/18 02:32:50;;;;;;;5.13;2.90;;;;;;;11.67;44.87;100470.72;5045923;28;20045;-79
2023/03/18 02:35:19;;;;;;;4.93;2.75;;;;;;;11.65;44.73;100467.25;5029657;28;20096;-78
2023/03/18 02:37:48;;;;;;;4.22;2.58;;;;;;;11.65;44.85;100470.00;5010670;28;20056;-78
2023/03/18 02:40:19;;;;;;;4.63;2.72;;;;;;;11.66;44.84;100464.38;5028116;28;20061;-80
2023/03/18 02:42:49;;;;;;;4.50;2.53;;;;;;;11.65;45.08;100465.38;5010026;28;20065;-80
2023/03/18 02:45:30;;;;;;;5.20;3.25;;;;;;;11.66;45.62;100474.47;5014069;28;20088;-79
2023/03/18 02:48:17;;;;;;;7.05;2.97;;;;;;;11.62;45.18;100471.19;5029810;28;20402;-80
2023/03/18 02:50:46;;;;;;;4.53;2.58;;;;;;;11.60;44.82;100483.25;5020999;28;20065;-80
2023/03/18 02:53:14;;;;;;;4.90;2.63;;;;;;;11.58;44.90;100477.94;5018352;28;20048;-80
2023/03/18 02:55:42;;;;;;;4.75;2.95;;;;;;;11.59;45.03;100485.13;5011981;28;20287;-78
2023/03/18 02:58:12;;;;;;;6.57;3.10;;;;;;;11.58;45.13;100483.41;5015119;28;20052;-80
2023/03/18 03:00:41;;;;;;;5.95;3.20;;;;;;;11.56;45.02;100495.53;5011404;28;20133;-79
2023/03/18 03:03:09;;;;;;;4.80;2.90;;;;;;;11.55;45.08;100496.56;5031036;23;20057;-82
2023/03/18 03:05:37;;;;;;;5.22;2.60;;;;;;;11.53;45.27;100490.38;4998680;28;20049;-82
2023/03/18 03:08:05;;;;;;;4.78;2.78;;;;;;;11.51;45.00;100489.66;4998072;28;20164;-80
2023/03/18 03:10:40;;;;;;;4.72;2.35;;;;;;;11.50;45.00;100482.44;4992135;28;21646;-80
2023/03/18 03:13:08;;;;;;;4.70;2.80;;;;;;;11.50;45.51;100483.28;4995634;28;20042;-80
2023/03/18 03:15:39;;;;;;;3.50;2.50;;;;;;;11.50;45.47;100490.66;5021289;28;20058;-80
2023/03/18 03:18:07;;;;;;;4.22;2.45;;;;;;;11.48;45.22;100499.00;5030044;28;20708;-79
2023/03/18 03:20:37;;;;;;;4.90;2.70;;;;;;;11.48;45.50;100495.41;5028245;28;20122;-79
2023/03/18 03:23:07;;;;;;;4.68;2.47;;;;;;;11.47;45.79;100501.94;5021633;28;20102;-79
2023/03/18 03:25:35;;;;;;;4.82;2.75;;;;;;;11.46;45.25;100495.59;5026959;28;20047;-79
2023/03/18 03:28:04;;;;;;;4.80;2.45;;;;;;;11.46;45.86;100501.06;5031975;28;20080;-80
2023/03/18 03:30:32;;;;;;;4.95;2.85;;;;;;;11.45;45.31;100502.06;5023160;28;20056;-79
2023/03/18 03:33:01;;;;;;;5.93;3.20;;;;;;;11.45;45.57;100499.34;5027223;28;20497;-79
2023/03/18 03:35:29;;;;;;;6.30;3.20;;;;;;;11.44;45.48;100503.09;5022911;28;20117;-80
2023/03/18 03:37:58;;;;;;;6.88;3.10;;;;;;;11.42;45.74;100501.50;5026875;28;20460;-79
2023/03/18 03:40:27;;;;;;;5.90;2.80;;;;;;;11.42;45.81;100499.63;5017774;28;20054;-80
2023/03/18 03:42:55;;;;;;;5.90;3.00;;;;;;;11.39;46.04;100497.16;5026056;28;20048;-79
2023/03/18 03:45:23;;;;;;;5.03;3.10;;;;;;;11.39;45.56;100504.56;5027289;28;20492;-79
2023/03/18 03:47:53;;;;;;;5.15;2.80;;;;;;;11.38;45.98;100511.03;5022506;28;20050;-80
2023/03/18 03:50:23;;;;;;;4.80;2.67;;;;;;;11.38;46.18;100516.53;5018767;28;20064;-80
2023/03/18 03:52:51;;;;;;;5.00;2.97;;;;;;;11.35;45.84;100517.66;5031133;28;20046;-80
2023/03/18 03:55:21;;;;;;;4.63;2.80;;;;;;;11.35;45.93;100526.75;5031747;28;20054;-81
2023/03/18 03:57:50;;;;;;;4.22;2.58;;;;;;;11.32;45.63;100527.03;5031172;28;20541;-80
2023/03/18 04:00:21;;;;;;;5.80;3.00;;;;;;;11.33;46.04;100530.66;5012432;28;20045;-80
2023/03/18 04:02:51;;;;;;;4.43;2.90;;;;;;;11.31;46.21;100532.66;5038445;28;20042;-79
2023/03/18 04:05:22;;;;;;;4.15;2.60;;;;;;;11.29;46.09;100532.84;5030741;28;20045;-79
2023/03/18 04:07:52;;;;;;;5.13;3.00;;;;;;;11.29;46.17;100540.19;5031644;28;20057;-80
2023/03/18 04:10:30;;;;;;;5.30;2.80;;;;;;;11.26;45.94;100535.84;5023109;28;20065;-80
2023/03/18 04:12:59;;;;;;;5.88;2.90;;;;;;;11.25;46.03;100541.47;5013781;28;20129;-79
2023/03/18 04:15:27;;;;;;;4.75;3.15;;;;;;;11.24;46.08;100537.00;5012052;28;20564;-79
2023/03/18 04:17:56;;;;;;;5.78;3.25;;;;;;;11.24;46.14;100540.59;5025550;28;20041;-80
2023/03/18 04:20:25;;;;;;;5.90;3.20;;;;;;;11.24;46.34;100539.75;5017994;28;20105;-81
2023/03/18 04:22:54;;;;;;;5.18;3.15;;;;;;;11.25;46.69;100549.69;5016301;28;20509;-81
2023/03/18 04:25:24;;;;;;;5.50;3.30;;;;;;;11.24;46.67;100547.97;5008936;28;20141;-80
2023/03/18 04:27:52;;;;;;;3.78;2.78;;;;;;;11.24;46.44;100554.31;5010563;28;20092;-79
2023/03/18 04:30:22;;;;;;;5.88;3.20;;;;;;;11.24;46.16;100550.69;5016641;28;20137;-79
2023/03/18 04:33:00;;;;;;;4.90;3.28;;;;;;;11.23;46.45;100562.66;5012548;28;20050;-80
2023/03/18 04:35:30;;;;;;;4.72;3.13;;;;;;;11.23;46.52;100551.69;5018577;28;20045;-79
2023/03/18 04:37:59;;;;;;;6.47;3.08;;;;;;;11.25;46.44;100555.16;5031459;28;20048;-80
2023/03/18 04:40:27;;;;;;;7.28;3.38;;;;;;;11.24;46.65;100556.19;5021440;28;20052;-81
2023/03/18 04:42:56;;;;;;;5.68;3.03;;;;;;;11.23;46.78;100558.06;5026220;28;20045;-80
2023/03/18 04:45:27;;;;;;;5.03;3.08;;;;;;;11.22;46.47;100567.31;5032071;28;20104;-80
2023/03/18 04:47:57;;;;;;;5.90;3.55;;;;;;;11.22;46.48;100558.22;5034649;28;20067;-80
2023/03/18 04:50:26;;;;;;;4.70;3.13;;;;;;;11.21;46.76;100561.97;5024371;28;20041;-80
2023/03/18 04:52:54;;;;;;;5.93;3.30;;;;;;;11.20;46.63;100566.56;5040598;28;20049;-80
2023/03/18 04:55:28;;;;;;;6.43;3.87;;;;;;;11.20;46.30;100568.44;5028766;28;20047;-80
2023/03/18 04:57:57;;;;;;;6.88;3.53;;;;;;;11.19;46.22;100563.97;5014395;28;20077;-80
2023/03/18 05:00:27;;;;;;;5.45;3.53;;;;;;;11.19;46.73;100573.06;5020295;28;20060;-81
2023/03/18 05:03:06;;;;;;;6.22;3.33;;;;;;;11.18;46.89;100578.69;5012400;28;20054;-80
2023/03/18 05:05:34;;;;;;;6.22;3.95;;;;;;;11.17;46.49;100575.06;5023990;28;20054;-80
2023/03/18 05:08:07;;;;;;;6.03;3.80;;;;;;;11.16;46.83;100576.06;5035631;28;20072;-81
2023/03/18 05:10:37;;;;;;;6.43;3.42;;;;;;;11.18;46.79;100575.94;5032514;28;20049;-82
2023/03/18 05:13:05;;;;;;;5.20;3.50;;;;;;;11.15;46.46;100579.81;5006122;28;20054;-81
2023/03/18 05:15:35;;;;;;;5.95;3.55;;;;;;;11.16;46.55;100580.69;5019676;28;20065;-81
2023/03/18 05:18:04;;;;;;;6.53;3.45;;;;;;;11.15;46.55;100577.09;5027692;28;20066;-81
2023/03/18 05:20:32;;;;;;;5.75;3.13;;;;;;;11.14;46.45;100582.72;5028244;28;20651;-81
2023/03/18 05:23:01;;;;;;;6.05;3.60;;;;;;;11.14;46.49;100582.72;5026165;28;20048;-81
2023/03/18 05:25:48;;;;;;;5.93;3.33;;;;;;;11.14;47.12;100582.72;5021828;28;20946;-81
2023/03/18 05:28:18;;;;;;;6.00;3.40;;;;;;;11.14;47.07;100585.47;5020609;28;20049;-80
2023/03/18 05:31:12;;;;;;;5.03;3.28;;;;;;;11.13;47.04;100586.47;5025635;28;20053;-81
2023/03/18 05:33:41;;;;;;;6.18;3.20;;;;;;;11.13;46.64;100581.00;5026968;28;20052;-80
2023/03/18 05:36:12;;;;;;;5.43;3.40;;;;;;;11.14;46.68;100588.22;5029178;28;20076;-81
2023/03/18 05:38:52;;;;;;;6.22;3.35;;;;;;;11.12;46.64;100588.34;5029377;28;20045;-81
2023/03/18 05:41:21;;;;;;;5.50;3.60;;;;;;;11.14;46.52;100588.22;5018714;28;20472;-81
2023/03/18 05:43:49;;;;;;;5.35;3.38;;;;;;;11.13;46.81;100598.31;5011788;28;20449;-80
2023/03/18 05:46:17;;;;;;;4.63;3.20;;;;;;;11.13;47.01;100595.56;5006829;28;20049;-80
2023/03/18 05:48:55;;;;;;;5.68;3.72;;;;;;;11.13;47.07;100594.69;5006140;28;20133;-81
2023/03/18 05:51:28;;;;;;;4.80;3.05;;;;;;;11.14;46.85;100596.44;5021479;28;20045;-81
2023/03/18 05:53:56;;;;;;;4.32;3.13;;;;;;;11.14;46.87;100602.75;5005690;28;20048;-81
2023/03/18 05:56:30;;;;;;;5.93;3.20;;;;;;;11.14;47.37;100608.22;5015509;28;20147;-80
2023/03/18 05:59:00;;;;;;;6.18;3.10;;;;;;;11.12;46.59;100610.25;5017228;28;20111;-79
2023/03/18 06:02:00;;;;;;;5.10;3.00;;;;;;;11.13;47.02;100617.47;5010863;28;20405;-80
2023/03/18 06:04:29;;;;;;;4.85;3.00;;;;;;;11.14;46.96;100616.44;5011397;28;20417;-81
2023/03/18 06:06:57;;;;;;;5.90;3.67;;;;;;;11.16;47.07;100624.53;5024690;28;20073;-80
2023/03/18 06:09:26;;;;;;;5.00;3.10;;;;;;;11.16;46.78;100624.53;5036240;28;20558;-80
2023/03/18 06:11:56;;;;;;;5.00;3.15;;;;;;;11.17;47.08;100623.50;5012871;28;20058;-79
2023/03/18 06:14:28;;;;;;;5.82;3.05;;;;;;;11.15;47.05;100615.44;5007910;28;20061;-79
2023/03/18 06:16:59;;;;;;;5.32;3.47;;;;;;;11.16;46.96;100627.25;5021340;28;20539;-80
2023/03/18 06:19:29;;;;;;;4.68;3.15;;;;;;;11.16;47.07;100619.03;5022900;28;20448;-79
2023/03/18 06:21:57;;;;;;;5.70;3.08;;;;;;;11.16;46.83;100625.38;5025436;28;20501;-80
2023/03/18 06:24:25;;;;;;;5.38;3.20;;;;;;;11.17;47.30;100626.25;5023645;28;20124;-79
2023/03/18 06:26:56;;;;;;;4.93;3.13;;;;;;;11.19;46.98;100633.31;5026634;28;20497;-80
2023/03/18 06:29:25;;;;;;;4.95;2.97;;;;;;;11.18;47.36;100628.84;5031079;28;20076;-80
2023/03/18 06:31:56;;;;;;;4.70;3.03;;;;;;;11.16;47.45;100628.13;5024282;28;20438;-79
2023/03/18 06:34:26;;;;;;;5.68;2.78;;;;;;;11.19;47.34;100630.59;5026495;28;20406;-80
2023/03/18 06:36:55;;;;;;;4.10;3.00;;;;;;;11.19;47.35;100629.72;5026725;28;20057;-80
2023/03/18 06:39:23;;;;;;;5.18;3.03;;;;;;;11.20;47.22;100628.72;5021628;28;20041;-80
2023/03/18 06:41:51;;;;;;;5.38;3.10;;;;;;;11.20;47.15;100635.06;5024188;28;20073;-81
2023/03/18 06:44:31;;;;;;;5.50;3.28;;;;;;;11.21;47.01;100638.66;5021735;28;20058;-79
2023/03/18 06:47:07;;;;;;;5.82;3.65;;;;;;;11.20;47.28;100640.53;5026497;28;20049;-81
2023/03/18 06:49:39;;;;;;;5.78;3.80;;;;;;;11.21;47.35;100635.94;5023905;28;20038;-81
2023/03/18 06:52:13;;;;;;;5.85;3.58;;;;;;;11.20;47.30;100637.78;5033707;28;20115;-80
2023/03/18 06:54:44;;;;;;;5.85;3.55;;;;;;;11.22;48.24;100638.53;5052675;28;20102;-80
2023/03/18 06:57:15;;;;;;;7.97;4.18;;;;;;;11.25;48.42;100643.69;5026499;28;20053;-81
2023/03/18 06:59:45;;;;;;;6.90;4.78;;;;;;;11.35;49.23;100632.75;5030942;28;20046;-80
2023/03/18 07:02:14;;;;;;;6.05;3.70;;;;;;;11.44;49.69;100639.22;5035390;28;20072;-80
2023/03/18 07:04:42;;;;;;;4.97;3.88;;;;;;;11.60;49.81;100645.84;5034904;28;20037;-80
2023/03/18 07:07:11;;;;;;;5.82;3.90;;;;;;;11.82;49.91;100644.69;5038129;28;20055;-80
2023/03/18 07:09:44;;;;;;;5.88;4.10;;;;;;;12.05;50.07;100647.94;5026995;28;20720;-82
2023/03/18 07:12:13;;;;;;;5.55;3.78;;;;;;;12.32;50.34;100649.84;5030983;28;20072;-81
2023/03/18 07:14:44;;;;;;;4.35;3.38;;;;;;;12.58;49.89;100652.78;5039068;28;20041;-81
2023/03/18 07:17:13;;;;;;;4.70;3.35;;;;;;;12.83;49.69;100650.22;5031984;28;20053;-81
2023/03/18 07:19:41;;;;;;;6.25;3.55;;;;;;;13.10;49.84;100663.06;5035887;28;20534;-80
2023/03/18 07:22:10;;;;;;;5.20;3.55;;;;;;;13.38;49.41;100660.22;5034644;28;20058;-80
2023/03/18 07:24:38;;;;;;;4.47;3.15;;;;;;;13.66;48.84;100663.78;5031069;28;20033;-80
2023/03/18 07:27:07;;;;;;;6.00;3.72;;;;;;;13.93;48.65;100653.50;5024244;28;20104;-81
2023/03/18 07:29:34;;;;;;;4.97;3.08;;;;;;;14.20;48.85;100657.97;5033426;28;20026;-80
2023/03/18 07:32:04;;;;;;;4.40;2.95;;;;;;;14.49;47.62;100656.78;5036082;28;20643;-80
2023/03/18 07:34:32;;;;;;;4.85;3.35;;;;;;;14.73;47.76;100655.00;5026951;28;20045;-80
2023/03/18 07:37:01;;;;;;;4.15;2.83;;;;;;;14.99;47.61;100659.56;5010418;28;20045;-81
2023/03/18 07:39:29;;;;;;;3.90;2.47;;;;;;;15.23;46.64;100667.03;5017061;28;20041;-80
2023/03/18 07:41:57;;;;;;;4.00;2.50;;;;;;;15.46;46.69;100677.25;5030575;28;20049;-81
2023/03/18 07:44:29;;;;;;;4.40;2.45;;;;;;;15.66;46.42;100675.06;5043249;28;20045;-81
2023/03/18 07:46:57;;;;;;;4.93;2.50;;;;;;;15.91;45.43;100683.31;5039018;28;20053;-80
2023/03/18 07:49:26;;;;;;;5.45;2.65;;;;;;;16.10;44.80;100682.94;5041777;28;20037;-80
2023/03/18 07:51:54;;;;;;;3.50;2.30;;;;;;;16.25;44.88;100684.84;5028248;28;20081;-80
2023/03/18 07:54:23;;;;;;;5.55;3.00;;;;;;;16.40;44.02;100675.84;5021115;28;20056;-81
2023/03/18 07:56:52;;;;;;;5.00;2.70;;;;;;;16.54;44.05;100680.63;5009770;28;20050;-81
2023/03/18 07:59:20;;;;;;;4.60;2.40;;;;;;;16.65;43.33;100688.56;5019198;28;20635;-80
2023/03/18 08:01:49;;;;;;;4.93;3.25;;;;;;;16.78;43.06;100688.84;5025025;28;20045;-81
2023/03/18 08:04:18;;;;;;;3.70;2.55;;;;;;;16.89;42.62;100695.88;5034840;28;20528;-80
2023/03/18 08:06:48;;;;;;;5.07;2.72;;;;;;;16.99;41.78;100691.00;5029585;28;20519;-79
2023/03/18 08:09:16;;;;;;;3.60;2.42;;;;;;;17.01;41.72;100692.56;5042791;28;20037;-81
2023/03/18 08:11:43;;;;;;;4.68;2.80;;;;;;;17.06;41.32;100702.22;5035448;28;20045;-81
2023/03/18 08:14:12;;;;;;;4.40;2.47;;;;;;;17.05;40.99;100701.38;5041091;28;20052;-80
2023/03/18 08:16:41;;;;;;;3.83;2.30;;;;;;;17.03;40.28;100700.66;5046772;28;20037;-80
2023/03/18 08:19:09;;;;;;;4.63;2.65;;;;;;;16.99;40.04;100700.16;5045856;28;20052;-80
2023/03/18 08:21:37;;;;;;;4.47;2.50;;;;;;;16.96;39.86;100706.03;5033588;28;20052;-80
2023/03/18 08:24:07;;;;;;;3.33;2.25;;;;;;;16.94;39.94;100707.25;5035230;28;20061;-80
2023/03/18 08:26:35;;;;;;;4.93;2.60;;;;;;;16.87;39.73;100706.25;5035453;28;20054;-81
2023/03/18 08:29:04;;;;;;;3.65;2.00;;;;;;;16.82;39.95;100717.84;5028794;28;20045;-81
2023/03/18 08:31:32;;;;;;;3.78;2.30;;;;;;;16.77;39.58;100716.63;5031383;28;20512;-81
2023/03/18 08:34:00;;;;;;;3.78;2.10;;;;;;;16.72;39.87;100725.47;5041426;28;20045;-81
2023/03/18 08:36:30;;;;;;;4.43;1.90;;;;;;;16.68;39.08;100724.09;5020384;28;20050;-80
2023/03/18 08:39:00;;;;;;;3.45;1.90;;;;;;;16.62;39.15;100727.56;5051712;28;20057;-80
2023/03/18 08:41:29;;;;;;;4.13;2.20;;;;;;;16.58;39.41;100729.81;5043286;28;20088;-80
2023/03/18 08:43:57;;;;;;;3.63;1.73;;;;;;;16.53;39.12;100725.88;5017433;28;20045;-81
2023/03/18 08:46:25;;;;;;;3.95;1.80;;;;;;;16.48;39.53;100722.78;5015114;28;20058;-81
2023/03/18 08:48:54;;;;;;;3.88;1.70;;;;;;;16.43;39.45;100728.81;5016308;28;20505;-81
2023/03/18 08:51:22;;;;;;;3.80;2.00;;;;;;;16.39;39.06;100721.94;5016124;28;20049;-81
2023/03/18 08:53:50;;;;;;;3.60;1.63;;;;;;;16.37;39.08;100720.38;5009732;28;20456;-81
2023/03/18 08:56:19;;;;;;;3.65;1.60;;;;;;;16.34;39.52;100729.88;5013362;28;20050;-79
2023/03/18 08:58:48;;;;;;;3.42;1.67;;;;;;;16.33;39.36;100730.91;5000785;28;20126;-79
2023/03/18 09:01:18;;;;;;;3.65;1.90;;;;;;;16.30;39.60;100720.22;5020084;28;20567;-79
2023/03/18 09:03:46;;;;;;;3.13;1.80;;;;;;;16.29;38.74;100723.16;5027773;28;20072;-80
2023/03/18 09:06:17;;;;;;;3.22;1.70;;;;;;;16.25;39.33;100717.09;5033728;28;20049;-80
2023/03/18 09:08:45;;;;;;;2.63;1.80;;;;;;;16.24;39.26;100718.19;5023842;28;20069;-79
2023/03/18 09:11:12;;;;;;;3.42;1.80;;;;;;;16.22;39.00;100726.63;5029253;28;20050;-79
2023/03/18 09:13:40;;;;;;;2.75;1.73;;;;;;;16.21;39.17;100724.91;5036150;28;20041;-80
2023/03/18 09:16:12;;;;;;;4.90;2.15;;;;;;;16.23;38.83;100733.00;5035939;28;20068;-80
2023/03/18 09:18:40;;;;;;;2.97;1.50;;;;;;;16.18;39.05;100730.75;5032805;28;20038;-80
2023/03/18 09:21:12;;;;;;;3.13;1.67;;;;;;;16.19;39.47;100737.16;5019988;28;20046;-80
2023/03/18 09:23:40;;;;;;;2.72;1.60;;;;;;;16.20;39.36;100727.81;5029700;28;20413;-81
2023/03/18 09:26:08;;;;;;;3.20;1.63;;;;;;;16.22;39.57;100731.28;5040558;28;20049;-80
2023/03/18 09:28:38;;;;;;;3.85;2.05;;;;;;;16.23;39.06;100733.88;5036953;28;20546;-81
2023/03/18 09:31:06;;;;;;;3.97;1.70;;;;;;;16.25;39.01;100729.03;5026132;28;20049;-81
2023/03/18 09:33:36;;;;;;;2.97;1.80;;;;;;;16.29;39.06;100731.44;5031047;28;20060;-81
2023/03/18 09:36:07;;;;;;;3.70;1.60;;;;;;;16.29;38.69;100721.25;5024847;28;20523;-81
2023/03/18 09:38:37;;;;;;;3.70;1.70;;;;;;;16.29;38.41;100718.50;5026726;28;20053;-81
2023/03/18 09:41:18;;;;;;;3.40;1.85;;;;;;;16.32;38.47;100720.91;5019455;28;20056;-79
2023/03/18 09:43:59;;;;;;;3.22;1.55;;;;;;;16.32;38.40;100718.16;5025472;28;20079;-80
2023/03/18 09:46:37;;;;;;;3.30;1.50;;;;;;;16.36;38.34;100713.13;5033558;28;20470;-81
2023/03/18 09:49:35;;;;;;;3.25;1.50;;;;;;;16.34;38.46;100718.81;5043565;28;20056;-81
2023/03/18 09:52:17;;;;;;;3.03;1.70;;;;;;;16.39;38.03;100724.72;5034015;28;20552;-82
2023/03/18 09:54:53;;;;;;;2.90;1.63;;;;;;;16.44;38.80;100724.16;5023863;28;20041;-81
2023/03/18 09:57:25;;;;;;;3.00;1.38;;;;;;;16.48;38.29;100729.19;5028176;28;20633;-81
2023/03/18 10:00:07;;;;;;;2.70;1.55;;;;;;;16.53;38.45;100714.81;5034958;28;20049;-82
2023/03/18 10:02:41;;;;;;;2.97;1.70;;;;;;;16.56;38.55;100707.06;5036003;28;20048;-82
2023/03/18 10:05:16;;;;;;;2.60;1.48;;;;;;;16.61;38.24;100710.13;5036115;28;20057;-82
2023/03/18 10:07:57;;;;;;;3.03;1.50;;;;;;;16.67;38.10;100711.31;5029463;28;20038;-81
2023/03/18 10:10:30;;;;;;;2.05;1.38;;;;;;;16.71;37.89;100711.84;5027314;28;20127;-82
2023/03/18 10:13:10;;;;;;;2.60;1.55;;;;;;;16.77;37.96;100713.88;5030725;28;20056;-82
2023/03/18 10:15:44;;;;;;;2.65;1.45;;;;;;;16.80;38.01;100708.88;5032965;28;20107;-82
2023/03/18 10:18:24;;;;;;;2.88;1.40;;;;;;;16.86;38.20;100710.03;5034924;28;20616;-81
2023/03/18 10:21:16;;;;;;;3.33;1.40;;;;;;;16.91;37.93;100710.34;5033001;28;20063;-82
2023/03/18 10:23:53;;;;;;;3.13;1.60;;;;;;;16.96;37.43;100711.56;5030413;28;20072;-81
2023/03/18 10:26:31;;;;;;;2.72;1.35;;;;;;;17.03;37.69;100711.72;5025198;28;20045;-82
2023/03/18 10:29:20;;;;;;;3.92;1.60;;;;;;;17.11;37.74;100717.22;5038711;28;20041;-81
2023/03/18 10:32:10;;;;;;;1.85;1.17;;;;;;;17.17;37.22;100715.63;5019569;28;20054;-81
2023/03/18 10:35:00;;;;;;;2.97;1.50;;;;;;;17.22;37.20;100711.31;5028840;28;20053;-81
2023/03/18 10:37:51;;;;;;;2.30;1.40;;;;;;;17.28;36.60;100710.56;5031182;28;20503;-81
2023/03/18 10:40:48;;;;;;;2.17;1.20;;;;;;;17.34;36.50;100708.97;5026644;28;20049;-80
2023/03/18 10:43:52;;;;;;;2.53;1.48;;;;;;;17.39;36.42;100710.16;5044782;28;20052;-81
2023/03/18 10:46:35;;;;;;;3.15;1.35;;;;;;;17.40;36.96;100699.97;5018874;28;20066;-80
2023/03/18 10:49:12;;;;;;;1.98;1.33;;;;;;;17.44;36.50;100712.38;5013512;28;20072;-82
2023/03/18 10:51:46;;;;;;;3.35;1.65;;;;;;;17.45;36.51;100705.78;5025284;28;20051;-81
2023/03/18 10:54:23;;;;;;;2.22;1.20;;;;;;;17.47;36.06;100702.84;5037093;28;20041;-80
2023/03/18 10:56:52;;;;;;;2.17;1.15;;;;;;;17.44;36.79;100706.84;5035281;28;20137;-80
2023/03/18 10:59:23;;;;;;;3.30;1.50;;;;;;;17.48;36.32;100715.63;5042489;28;20443;-79
2023/03/18 11:01:55;;;;;;;2.70;1.42;;;;;;;17.49;36.18;100718.19;5021608;28;20049;-80
2023/03/18 11:04:24;;;;;;;;;;;;;;;17.21;37.20;100715.09;5031630;28;20041;-79
2023/03/18 11:06:56;;;;;;;2.42;1.40;;;;;;;17.49;36.72;100706.28;5037877;28;19921;-79
2023/03/18 11:09:31;;;;;;;2.83;1.30;;;;;;;17.54;35.90;100706.59;5032085;28;20060;-80
2023/03/18 11:12:04;;;;;;;1.88;1.20;;;;;;;17.58;35.95;100710.72;5023474;28;20054;-80
2023/03/18 11:14:36;;;;;;;2.92;1.38;;;;;;;17.59;36.55;100705.00;5047776;28;20495;-80
2023/03/18 11:17:06;;;;;;;2.97;1.40;;;;;;;17.61;36.39;100707.59;5028466;28;20109;-81
2023/03/18 11:19:38;;;;;;;2.90;1.35;;;;;;;17.65;35.79;100718.09;5026990;28;20047;-80
2023/03/18 11:22:21;;;;;;;3.73;1.53;;;;;;;17.65;35.36;100717.22;5011017;28;20501;-80
2023/03/18 11:25:06;;;;;;;3.40;1.40;;;;;;;17.65;35.18;100715.31;5007596;28;20041;-81
2023/03/18 11:27:37;;;;;;;2.80;1.40;;;;;;;17.67;36.18;100717.91;5011326;28;20055;-80
2023/03/18 11:30:14;;;;;;;3.07;1.77;;;;;;;17.68;35.73;100716.88;5019215;28;20493;-80
2023/03/18 11:33:02;;;;;;;2.58;1.40;;;;;;;17.67;36.22;100723.44;5028283;28;20042;-80
2023/03/18 11:35:36;;;;;;;3.53;1.60;;;;;;;17.71;35.91;100724.81;5031781;28;20103;-80
2023/03/18 11:38:06;;;;;;;2.78;1.60;;;;;;;17.72;35.97;100715.47;5043109;28;20100;-80
2023/03/18 11:40:39;;;;;;;5.05;1.75;;;;;;;17.76;35.97;100725.13;5020882;28;20123;-79
2023/03/18 11:43:17;;;;;;;3.45;2.00;;;;;;;17.78;34.95;100717.53;5010062;28;20458;-79
2023/03/18 11:45:58;;;;;;;3.45;1.90;;;;;;;17.79;34.89;100719.25;5025775;28;20072;-79
2023/03/18 11:48:35;;;;;;;2.13;1.30;;;;;;;17.79;34.98;100723.91;5038646;28;20037;-79